Time;durP1;ratioP1;P1;durP2;ratioP2;P2;SDS_P1;SDS_P2;PMS_P1;PMS_P2;Temp;Humidity;BMP_temperature;BMP_pressure;BME280_temperature;BME280_humidity;BME280_pressure;Samples;Min_cycle;Max_cycle;Signal;HPM_P1;HPM_P2
2021/12/24 00:01:22;;;;;;;42.92;20.67;;;10.70;99.90;;;;;;5047904;28;20456;-73
2021/12/24 00:03:48;;;;;;;42.13;19.55;;;10.80;99.90;;;;;;5086112;28;20613;-73
2021/12/24 00:06:14;;;;;;;44.20;20.92;;;10.80;99.90;;;;;;5067242;28;20930;-72
2021/12/24 00:08:43;;;;;;;47.70;21.80;;;10.80;99.90;;;;;;5076466;28;21027;-74
2021/12/24 00:11:09;;;;;;;50.42;22.92;;;10.80;99.90;;;;;;5076206;28;20452;-73
2021/12/24 00:13:39;;;;;;;57.53;24.00;;;10.90;99.90;;;;;;5057366;28;20433;-74
2021/12/24 00:37:32;;;;;;;92.70;31.17;;;11.10;99.90;;;;;;5051924;28;20773;-73
2021/12/24 00:42:29;;;;;;;90.05;29.20;;;11.10;99.90;;;;;;5073247;28;20205;-73
2021/12/24 00:44:55;;;;;;;104.85;29.05;;;10.80;99.90;;;;;;5068323;28;20189;-74
2021/12/24 00:47:21;;;;;;;115.30;29.27;;;10.50;99.90;;;;;;5054320;28;20553;-73
2021/12/24 00:49:46;;;;;;;111.80;29.05;;;10.40;99.90;;;;;;5074126;28;20182;-74
2021/12/24 00:55:02;;;;;;;117.68;32.33;;;10.20;99.90;;;;;;5063522;28;20229;-74
2021/12/24 00:57:35;;;;;;;98.90;29.30;;;10.10;99.90;;;;;;5062342;28;20186;-74
2021/12/24 01:00:04;;;;;;;110.75;31.48;;;10.10;99.90;;;;;;5060565;28;20273;-73
2021/12/24 01:02:31;;;;;;;100.43;30.67;;;10.00;99.90;;;;;;5073363;28;20191;-73
2021/12/24 01:04:57;;;;;;;125.85;32.08;;;10.00;99.90;;;;;;5037137;28;20927;-73
2021/12/24 01:07:23;;;;;;;112.18;32.60;;;10.00;99.90;;;;;;5046942;28;20190;-73
2021/12/24 01:09:49;;;;;;;117.78;31.77;;;10.00;99.90;;;;;;5082936;28;20557;-74
2021/12/24 01:12:14;;;;;;;98.97;30.73;;;10.00;99.90;;;;;;5083042;28;20296;-74
2021/12/24 01:14:40;;;;;;;122.03;31.27;;;10.00;99.90;;;;;;5054216;28;20552;-73
2021/12/24 01:17:19;;;;;;;127.25;31.85;;;10.00;99.90;;;;;;5054922;28;20194;-73
2021/12/24 01:19:48;;;;;;;110.00;28.85;;;10.00;99.90;;;;;;5064130;28;20406;-72
2021/12/24 01:23:05;;;;;;;123.00;30.83;;;9.90;99.90;;;;;;5076464;28;20207;-73
2021/12/24 01:38:19;;;;;;;96.75;27.48;;;10.00;99.90;;;;;;5086224;28;20185;-74
2021/12/24 01:43:24;;;;;;;89.38;27.05;;;9.90;99.90;;;;;;5061343;28;20228;-75
2021/12/24 01:45:55;;;;;;;105.55;27.40;;;9.90;99.90;;;;;;5113168;28;20261;-72
2021/12/24 01:48:21;;;;;;;102.88;25.52;;;9.90;99.90;;;;;;5077651;28;20199;-73
2021/12/24 01:50:49;;;;;;;92.03;25.45;;;9.90;99.90;;;;;;5072255;28;20183;-74
2021/12/24 01:53:20;;;;;;;87.80;25.75;;;9.90;99.90;;;;;;5071890;28;20183;-73
2021/12/24 01:55:50;;;;;;;77.68;25.20;;;9.90;99.90;;;;;;5068929;28;20201;-75
2021/12/24 01:58:20;;;;;;;88.35;25.13;;;10.00;99.90;;;;;;5078156;28;20605;-73
2021/12/24 02:00:50;;;;;;;87.95;26.15;;;10.00;99.90;;;;;;5067331;28;20199;-75
2021/12/24 02:03:16;;;;;;;75.32;23.75;;;10.00;99.90;;;;;;5071529;28;21033;-74
2021/12/24 02:05:43;;;;;;;92.47;24.17;;;10.00;99.90;;;;;;5080985;28;20269;-74
2021/12/24 02:08:10;;;;;;;96.65;24.55;;;10.00;99.90;;;;;;5074175;28;20312;-74
2021/12/24 02:10:36;;;;;;;79.68;24.90;;;10.00;99.90;;;;;;5077683;28;20241;-75
2021/12/24 02:13:03;;;;;;;81.60;25.08;;;10.00;99.90;;;;;;5073944;28;20243;-73
2021/12/24 02:16:06;;;;;;;72.72;24.20;;;10.00;99.90;;;;;;5084744;28;20559;-74
2021/12/24 02:28:16;;;;;;;74.38;25.13;;;10.00;99.90;;;;;;5079601;28;20225;-74
2021/12/24 02:29:44;;;;;;;78.20;23.53;;;10.70;99.90;;;;;;5072757;28;20407;-72
2021/12/24 02:32:09;;;;;;;65.32;21.90;;;10.90;99.90;;;;;;5074617;28;20421;-76
2021/12/24 02:34:35;;;;;;;66.63;21.73;;;10.90;99.90;;;;;;5073048;28;20403;-75
2021/12/24 02:37:01;;;;;;;57.55;19.40;;;11.00;99.90;;;;;;5077754;28;20192;-73
2021/12/24 02:39:27;;;;;;;65.97;19.02;;;10.70;99.90;;;;;;5079941;28;20248;-76
2021/12/24 02:41:53;;;;;;;69.03;19.60;;;10.50;99.90;;;;;;5077967;28;20215;-73
2021/12/24 02:44:19;;;;;;;71.93;20.67;;;10.40;99.90;;;;;;5076525;28;20249;-74
2021/12/24 02:54:55;;;;;;;60.65;22.25;;;10.10;99.90;;;;;;5082568;28;20414;-74
2021/12/24 02:57:26;;;;;;;64.73;21.97;;;10.50;99.90;;;;;;5068699;28;20431;-76
2021/12/24 03:00:00;;;;;;;61.60;20.35;;;10.80;99.90;;;;;;5083398;28;20405;-73
2021/12/24 03:02:28;;;;;;;64.78;20.42;;;10.90;99.90;;;;;;5073327;28;20410;-73
2021/12/24 03:04:53;;;;;;;59.25;19.50;;;11.00;99.90;;;;;;5078462;28;20405;-74
2021/12/24 03:07:19;;;;;;;58.50;18.70;;;11.10;99.90;;;;;;5069959;28;20411;-75
2021/12/24 03:09:45;;;;;;;58.95;18.55;;;11.10;99.90;;;;;;5075000;28;20829;-75
2021/12/24 03:12:11;;;;;;;57.63;17.93;;;11.20;99.90;;;;;;5070391;28;21971;-74
2021/12/24 03:14:37;;;;;;;56.88;16.80;;;11.20;99.90;;;;;;5077208;28;20421;-77
2021/12/24 03:17:08;;;;;;;62.95;17.63;;;11.20;99.90;;;;;;5072074;28;20425;-73
2021/12/24 03:19:34;;;;;;;51.70;16.52;;;11.20;99.90;;;;;;5079315;28;20442;-73
2021/12/24 03:24:47;;;;;;;52.60;16.77;;;11.30;99.90;;;;;;5074628;28;20888;-74
2021/12/24 03:27:15;;;;;;;45.17;16.25;;;11.30;99.90;;;;;;5074298;28;20407;-74
2021/12/24 03:29:41;;;;;;;50.83;16.00;;;11.30;99.90;;;;;;5075052;28;20406;-74
2021/12/24 03:32:07;;;;;;;53.83;16.17;;;11.30;99.90;;;;;;5074996;28;20419;-74
2021/12/24 03:34:33;;;;;;;52.33;14.88;;;11.30;99.90;;;;;;5088600;28;20421;-73
2021/12/24 03:37:00;;;;;;;51.78;14.95;;;11.30;99.90;;;;;;5078107;28;20422;-74
2021/12/24 03:39:29;;;;;;;53.30;15.20;;;11.20;99.90;;;;;;5078432;28;20412;-74
2021/12/24 03:41:54;;;;;;;49.50;15.23;;;11.20;99.90;;;;;;5072283;28;20408;-76
2021/12/24 03:44:21;;;;;;;49.85;15.00;;;11.20;99.90;;;;;;5076648;28;20473;-74
2021/12/24 03:49:30;;;;;;;46.90;13.88;;;11.10;99.90;;;;;;5076832;28;20743;-72
2021/12/24 03:52:14;;;;;;;54.33;14.00;;;11.10;99.90;;;;;;5077715;28;20458;-73
2021/12/24 03:54:57;;;;;;;50.85;13.95;;;11.00;99.90;;;;;;5072168;28;20570;-73
2021/12/24 03:57:37;;;;;;;44.85;12.85;;;11.00;99.90;;;;;;5075496;28;20462;-76
2021/12/24 04:00:28;;;;;;;45.90;13.30;;;11.00;99.90;;;;;;5071813;28;20426;-73
2021/12/24 04:03:14;;;;;;;47.65;12.30;;;11.00;99.90;;;;;;5072879;28;20417;-74
2021/12/24 04:05:44;;;;;;;47.30;12.07;;;10.90;99.90;;;;;;5072346;28;20439;-72
2021/12/24 04:08:28;;;;;;;49.05;11.90;;;10.90;99.90;;;;;;5070375;28;20453;-73
2021/12/24 04:11:12;;;;;;;49.25;11.57;;;10.90;99.90;;;;;;5068339;28;20454;-73
2021/12/24 04:13:40;;;;;;;47.17;11.10;;;11.00;99.90;;;;;;5066975;28;20498;-73
2021/12/24 04:16:06;;;;;;;46.10;10.63;;;11.00;99.90;;;;;;5066044;28;20400;-74
2021/12/24 04:26:51;;;;;;;39.65;9.48;;;11.00;99.90;;;;;;5073633;28;20398;-73
2021/12/24 04:29:18;;;;;;;42.00;9.25;;;11.00;99.90;;;;;;5069543;28;20457;-74
2021/12/24 04:31:51;;;;;;;46.25;9.00;;;11.00;99.90;;;;;;5080640;28;20474;-73
2021/12/24 04:34:38;;;;;;;36.15;8.23;;;11.00;99.90;;;;;;5071771;28;20471;-73
2021/12/24 04:39:55;;;;;;;39.53;8.93;;;11.00;99.90;;;;;;5070322;28;20407;-72
2021/12/24 04:51:02;;;;;;;43.35;8.90;;;11.00;99.90;;;;;;5072898;28;20429;-72
2021/12/24 04:51:10;;;;;;;44.22;8.68;;;10.90;99.90;;;;;;5077663;28;20801;-74
2021/12/24 05:05:11;;;;;;;40.70;8.70;;;10.70;99.90;;;;;;5073815;28;20415;-76
2021/12/24 05:10:11;;;;;;;45.88;8.73;;;10.60;99.90;;;;;;5072000;28;20416;-74
2021/12/24 05:12:38;;;;;;;50.17;8.63;;;10.60;99.90;;;;;;5063967;28;20417;-74
2021/12/24 05:15:09;;;;;;;51.92;8.88;;;10.60;99.90;;;;;;5080000;28;20389;-74
2021/12/24 05:21:33;;;;;;;47.83;7.95;;;10.50;99.90;;;;;;5058244;28;20430;-73
2021/12/24 05:24:02;;;;;;;38.22;7.63;;;10.50;99.90;;;;;;5067619;28;20772;-73
2021/12/24 05:26:28;;;;;;;52.72;8.63;;;10.50;99.90;;;;;;5068111;28;20944;-72
2021/12/24 05:28:58;;;;;;;49.05;8.20;;;10.50;99.90;;;;;;5051535;28;20813;-74
2021/12/24 05:31:24;;;;;;;53.05;8.45;;;10.50;99.90;;;;;;5064411;28;20411;-73
2021/12/24 05:33:51;;;;;;;54.15;8.68;;;10.50;99.90;;;;;;5071575;28;20408;-75
2021/12/24 05:36:17;;;;;;;48.77;8.07;;;10.50;99.90;;;;;;5067010;28;20434;-75
2021/12/24 05:38:43;;;;;;;43.70;8.30;;;10.40;99.90;;;;;;5067573;28;20411;-71
2021/12/24 05:41:10;;;;;;;48.63;7.57;;;10.40;99.90;;;;;;5067354;28;20415;-74
2021/12/24 05:43:36;;;;;;;50.10;8.15;;;10.40;99.90;;;;;;5072620;28;20883;-72
2021/12/24 05:46:02;;;;;;;48.30;8.07;;;10.40;99.90;;;;;;5074562;28;20414;-72
2021/12/24 05:48:39;;;;;;;51.55;7.18;;;10.40;99.90;;;;;;5077150;28;20410;-75
2021/12/24 05:51:09;;;;;;;43.05;7.97;;;10.40;99.90;;;;;;5071488;28;20407;-74
2021/12/24 05:53:50;;;;;;;46.33;7.40;;;10.40;99.90;;;;;;5073354;28;20422;-74
2021/12/24 05:56:18;;;;;;;46.38;7.00;;;10.30;99.90;;;;;;5071183;28;20773;-74
2021/12/24 05:58:49;;;;;;;46.38;6.82;;;10.40;99.90;;;;;;5067457;28;20407;-74
2021/12/24 06:01:15;;;;;;;45.42;7.00;;;10.30;99.90;;;;;;5083158;28;20461;-74
2021/12/24 06:03:44;;;;;;;44.78;6.80;;;10.30;99.90;;;;;;5086094;28;21122;-74
2021/12/24 06:06:10;;;;;;;46.23;7.07;;;10.30;99.90;;;;;;5063380;28;20404;-76
2021/12/24 06:08:36;;;;;;;45.80;6.72;;;10.30;99.90;;;;;;5071993;28;20407;-74
2021/12/24 06:11:01;;;;;;;45.93;6.73;;;10.30;99.90;;;;;;5081992;28;20407;-73
2021/12/24 06:13:29;;;;;;;41.97;6.53;;;10.30;99.90;;;;;;5077430;28;20442;-73
2021/12/24 06:15:55;;;;;;;44.60;6.47;;;10.30;99.90;;;;;;5085820;28;20408;-76
2021/12/24 06:18:28;;;;;;;44.60;6.37;;;10.30;99.90;;;;;;5069435;28;20407;-73
2021/12/24 06:20:57;;;;;;;40.43;6.53;;;10.30;99.90;;;;;;5077278;28;20448;-74
2021/12/24 06:23:24;;;;;;;36.80;6.40;;;10.30;99.90;;;;;;5075827;28;20402;-75
2021/12/24 06:25:52;;;;;;;38.15;6.47;;;10.40;99.90;;;;;;5055115;28;20576;-76
2021/12/24 06:28:19;;;;;;;46.20;6.20;;;10.30;99.90;;;;;;5081883;28;20407;-75
2021/12/24 06:30:44;;;;;;;43.60;6.30;;;10.30;99.90;;;;;;5083035;28;20408;-77
2021/12/24 06:33:10;;;;;;;40.40;6.30;;;10.30;99.90;;;;;;5080682;28;20393;-76
2021/12/24 06:35:37;;;;;;;41.13;6.28;;;10.30;99.90;;;;;;5078139;28;20451;-76
2021/12/24 06:38:04;;;;;;;46.88;6.20;;;10.30;99.90;;;;;;5078341;28;20428;-77
2021/12/24 06:40:30;;;;;;;37.27;6.03;;;10.30;99.90;;;;;;5069098;28;20780;-75
2021/12/24 06:42:56;;;;;;;46.78;6.00;;;10.30;99.90;;;;;;5072678;28;20411;-77
2021/12/24 06:45:24;;;;;;;43.13;6.37;;;10.30;99.90;;;;;;5069278;28;20631;-74
2021/12/24 06:47:55;;;;;;;40.60;6.40;;;10.30;99.90;;;;;;5068073;28;21331;-74
2021/12/24 06:50:22;;;;;;;41.20;6.32;;;10.30;99.90;;;;;;5066343;28;20417;-76
2021/12/24 06:52:47;;;;;;;45.63;6.88;;;10.30;99.90;;;;;;5065427;28;20408;-75
2021/12/24 06:55:13;;;;;;;42.70;6.40;;;10.30;99.90;;;;;;5069180;28;20407;-75
2021/12/24 06:57:41;;;;;;;40.80;6.55;;;10.30;99.90;;;;;;5047913;28;20399;-74
2021/12/24 07:00:11;;;;;;;39.73;6.43;;;10.30;99.90;;;;;;5052578;28;20811;-76
2021/12/24 07:02:37;;;;;;;47.70;6.93;;;10.30;99.90;;;;;;5033032;28;20407;-75
2021/12/24 07:05:04;;;;;;;53.15;7.32;;;10.30;99.90;;;;;;5051361;28;20402;-74
2021/12/24 07:07:29;;;;;;;43.22;6.93;;;10.30;99.90;;;;;;5066971;28;20534;-76
2021/12/24 07:09:55;;;;;;;38.67;7.27;;;10.30;99.90;;;;;;5050796;28;20963;-73
2021/12/24 07:12:21;;;;;;;45.17;6.85;;;10.30;99.90;;;;;;5050563;28;20410;-72
2021/12/24 07:14:49;;;;;;;44.13;7.23;;;10.30;99.90;;;;;;5069158;28;20411;-72
2021/12/24 07:17:14;;;;;;;43.58;6.68;;;10.40;99.90;;;;;;5068799;28;20782;-74
2021/12/24 07:19:40;;;;;;;40.63;6.60;;;10.40;99.90;;;;;;5066923;28;20470;-74
2021/12/24 07:22:07;;;;;;;45.58;6.82;;;10.40;99.90;;;;;;5050002;28;21006;-74
2021/12/24 07:24:34;;;;;;;41.10;6.53;;;10.50;99.90;;;;;;5063763;28;20422;-74
2021/12/24 07:27:01;;;;;;;45.15;7.20;;;10.50;99.90;;;;;;5049798;28;20391;-75
2021/12/24 07:29:27;;;;;;;41.75;6.93;;;10.50;99.90;;;;;;5066245;28;21231;-75
2021/12/24 07:31:53;;;;;;;40.05;6.55;;;10.60;99.90;;;;;;5067942;28;20403;-74
2021/12/24 07:34:19;;;;;;;46.50;7.40;;;10.60;99.90;;;;;;5050587;28;20404;-73
2021/12/24 07:36:44;;;;;;;51.27;7.13;;;10.60;99.90;;;;;;5050057;28;20418;-74
2021/12/24 07:39:10;;;;;;;39.90;6.80;;;10.60;99.90;;;;;;5030913;28;20410;-73
2021/12/24 07:41:36;;;;;;;46.95;7.47;;;10.60;99.90;;;;;;5066729;28;20821;-74
2021/12/24 07:44:06;;;;;;;43.65;6.70;;;10.70;99.90;;;;;;5048649;28;20396;-73
2021/12/24 07:46:39;;;;;;;41.22;6.68;;;10.70;99.90;;;;;;5065677;28;20907;-73
2021/12/24 07:49:18;;;;;;;43.92;6.30;;;10.70;99.90;;;;;;5067195;28;20953;-73
2021/12/24 07:54:22;;;;;;;40.13;6.63;;;10.70;99.90;;;;;;5067363;28;20403;-73
2021/12/24 07:56:47;;;;;;;48.90;6.63;;;10.70;99.90;;;;;;5062276;28;20419;-75
2021/12/24 07:59:15;;;;;;;41.40;6.50;;;10.80;99.90;;;;;;5066787;28;20873;-73
2021/12/24 08:01:43;;;;;;;46.33;5.93;;;10.80;99.90;;;;;;5060147;28;20423;-74
2021/12/24 08:04:09;;;;;;;44.47;6.28;;;10.80;99.90;;;;;;5059090;28;20779;-73
2021/12/24 08:06:34;;;;;;;44.23;6.37;;;10.80;99.90;;;;;;5046360;28;20417;-73
2021/12/24 08:09:00;;;;;;;43.75;5.85;;;10.80;99.90;;;;;;5047261;28;20415;-73
2021/12/24 08:11:26;;;;;;;41.70;6.10;;;10.90;99.90;;;;;;5049090;28;20868;-74
2021/12/24 08:13:51;;;;;;;47.13;6.80;;;10.90;99.90;;;;;;5062841;28;20500;-72
2021/12/24 08:16:17;;;;;;;41.10;5.97;;;10.90;99.90;;;;;;5060500;28;20407;-74
2021/12/24 08:18:43;;;;;;;42.57;6.00;;;11.00;99.90;;;;;;5066365;28;20419;-74
2021/12/24 08:21:10;;;;;;;42.83;6.13;;;10.90;99.90;;;;;;5066749;28;20422;-74
2021/12/24 08:23:35;;;;;;;43.50;5.93;;;11.00;99.90;;;;;;5048116;28;20403;-75
2021/12/24 08:26:01;;;;;;;45.78;6.03;;;11.00;99.90;;;;;;5046903;28;20500;-74
2021/12/24 08:28:27;;;;;;;39.73;6.23;;;11.00;99.90;;;;;;5065557;28;20407;-73
2021/12/24 08:30:55;;;;;;;45.95;6.70;;;11.00;99.90;;;;;;5043137;28;20447;-74
2021/12/24 08:33:21;;;;;;;39.00;6.38;;;11.00;99.90;;;;;;5065567;28;20465;-73
2021/12/24 08:35:47;;;;;;;47.40;6.90;;;11.10;99.90;;;;;;5044734;28;20811;-71
2021/12/24 08:38:13;;;;;;;45.83;6.30;;;11.00;99.90;;;;;;5066407;28;20979;-72
2021/12/24 08:40:38;;;;;;;40.47;7.35;;;11.10;99.90;;;;;;5064917;28;20419;-73
2021/12/24 08:43:04;;;;;;;45.10;6.50;;;11.10;99.90;;;;;;5036776;28;20530;-73
2021/12/24 08:45:30;;;;;;;43.03;6.80;;;11.10;99.90;;;;;;5065986;28;20402;-74
2021/12/24 08:47:55;;;;;;;42.57;6.53;;;11.10;99.90;;;;;;5062550;28;20400;-74
2021/12/24 08:50:21;;;;;;;43.60;6.28;;;11.10;99.90;;;;;;5062104;28;20411;-74
2021/12/24 08:52:47;;;;;;;44.77;6.47;;;11.10;99.90;;;;;;5060157;28;20419;-75
2021/12/24 08:55:14;;;;;;;38.45;6.32;;;11.10;99.90;;;;;;5047175;28;20439;-72
2021/12/24 08:57:40;;;;;;;46.85;7.45;;;11.10;99.90;;;;;;5062714;28;20710;-74
2021/12/24 09:00:09;;;;;;;42.70;6.40;;;11.10;99.90;;;;;;5065912;28;20415;-74
2021/12/24 09:02:36;;;;;;;42.20;6.55;;;11.10;99.90;;;;;;5039097;28;20422;-74
2021/12/24 09:05:04;;;;;;;39.75;6.60;;;11.00;99.90;;;;;;5047229;28;20408;-74
2021/12/24 09:07:30;;;;;;;37.17;6.30;;;11.10;99.90;;;;;;5045699;28;20411;-72
2021/12/24 09:09:55;;;;;;;39.17;6.30;;;11.10;99.90;;;;;;5061860;28;20407;-72
2021/12/24 09:12:21;;;;;;;38.07;6.07;;;11.00;99.90;;;;;;5043379;28;20502;-73
2021/12/24 09:14:46;;;;;;;38.13;6.68;;;11.10;99.90;;;;;;5061865;28;20443;-73
2021/12/24 09:17:12;;;;;;;46.63;7.10;;;11.10;99.90;;;;;;5062043;28;20411;-75
2021/12/24 09:19:44;;;;;;;37.17;6.85;;;11.10;99.90;;;;;;5061381;28;20427;-72
2021/12/24 09:22:16;;;;;;;47.58;7.20;;;11.10;99.90;;;;;;5041214;28;20434;-72
2021/12/24 09:24:43;;;;;;;43.65;7.40;;;11.20;99.90;;;;;;5062548;28;20482;-73
2021/12/24 09:27:09;;;;;;;39.67;6.55;;;11.20;99.90;;;;;;5061415;28;20461;-73
2021/12/24 09:29:35;;;;;;;40.53;7.40;;;11.20;99.90;;;;;;5063812;28;20421;-73
2021/12/24 09:32:01;;;;;;;42.17;7.27;;;11.10;99.90;;;;;;5061340;28;20415;-73
2021/12/24 09:34:26;;;;;;;39.80;7.00;;;11.10;99.90;;;;;;5064895;28;20415;-76
2021/12/24 09:36:52;;;;;;;41.22;7.63;;;11.10;99.90;;;;;;5062202;28;20417;-73
2021/12/24 09:39:18;;;;;;;46.00;7.72;;;11.10;99.90;;;;;;5064311;28;20471;-73
2021/12/24 09:41:44;;;;;;;42.00;7.60;;;11.20;99.90;;;;;;5060642;28;20482;-74
2021/12/24 09:44:10;;;;;;;45.50;7.30;;;11.20;99.90;;;;;;5053123;28;20515;-73
2021/12/24 09:46:40;;;;;;;41.95;7.35;;;11.20;99.90;;;;;;5053440;28;20434;-74
2021/12/24 09:49:07;;;;;;;39.57;6.90;;;11.20;99.90;;;;;;5046034;28;20415;-74
2021/12/24 09:51:37;;;;;;;39.38;7.05;;;11.20;99.90;;;;;;5040750;28;20765;-73
2021/12/24 09:54:12;;;;;;;41.90;7.50;;;11.20;99.90;;;;;;5060599;28;20415;-75
2021/12/24 09:56:40;;;;;;;39.80;7.30;;;11.30;99.90;;;;;;5062340;28;20854;-75
2021/12/24 09:59:06;;;;;;;40.63;7.63;;;11.30;99.90;;;;;;5047141;28;20411;-74
2021/12/24 10:01:38;;;;;;;37.83;6.63;;;11.30;99.90;;;;;;5037759;28;20471;-74
2021/12/24 10:04:15;;;;;;;42.30;7.00;;;11.30;99.90;;;;;;5063029;28;20435;-74
2021/12/24 10:07:06;;;;;;;37.33;6.77;;;11.40;99.90;;;;;;5042941;28;20784;-75
2021/12/24 10:09:50;;;;;;;42.10;6.47;;;11.40;99.90;;;;;;5060477;28;20401;-74
2021/12/24 10:12:19;;;;;;;43.05;7.55;;;11.30;99.90;;;;;;5057317;28;20423;-74
2021/12/24 10:15:06;;;;;;;35.83;6.73;;;11.40;99.90;;;;;;5064028;28;20414;-74
2021/12/24 10:17:35;;;;;;;38.55;6.82;;;11.40;99.90;;;;;;5060619;28;20427;-73
2021/12/24 10:20:20;;;;;;;43.80;7.50;;;11.40;99.90;;;;;;5064565;28;20415;-73
2021/12/24 10:22:51;;;;;;;42.97;7.28;;;11.40;99.90;;;;;;5057137;28;20433;-73
2021/12/24 10:25:24;;;;;;;45.50;7.10;;;11.40;99.90;;;;;;5043922;28;20464;-73
2021/12/24 10:27:49;;;;;;;37.95;7.15;;;11.40;99.90;;;;;;5045017;28;20937;-73
2021/12/24 10:30:29;;;;;;;40.77;6.70;;;11.50;99.90;;;;;;5066033;28;20431;-73
2021/12/24 10:32:57;;;;;;;45.08;6.88;;;11.50;99.90;;;;;;5067322;28;20486;-73
2021/12/24 10:35:28;;;;;;;47.73;7.50;;;11.50;99.90;;;;;;5062723;28;20418;-71
2021/12/24 10:38:17;;;;;;;40.05;7.60;;;11.50;99.90;;;;;;5066854;28;20411;-71
2021/12/24 10:40:51;;;;;;;46.00;7.83;;;11.40;99.90;;;;;;5065236;28;20486;-73
2021/12/24 10:43:28;;;;;;;39.35;7.50;;;11.40;99.90;;;;;;5037812;28;21032;-74
2021/12/24 10:46:17;;;;;;;44.17;7.87;;;11.30;99.90;;;;;;5067672;28;20503;-73
2021/12/24 10:49:14;;;;;;;44.13;8.18;;;11.30;99.90;;;;;;5067373;28;20445;-74
2021/12/24 10:52:11;;;;;;;43.17;8.17;;;11.30;99.90;;;;;;5072970;28;20415;-73
2021/12/24 10:54:52;;;;;;;43.47;8.77;;;11.30;99.90;;;;;;5069233;28;20904;-73
2021/12/24 10:57:20;;;;;;;50.03;8.52;;;11.30;99.90;;;;;;5070493;28;20419;-74
2021/12/24 10:59:49;;;;;;;44.53;9.18;;;11.30;99.90;;;;;;5069487;28;20783;-72
2021/12/24 11:02:16;;;;;;;46.00;9.98;;;11.30;99.90;;;;;;5064590;28;20926;-73
2021/12/24 11:04:42;;;;;;;44.38;8.57;;;11.30;99.90;;;;;;5069831;28;20406;-74
2021/12/24 11:07:37;;;;;;;46.50;8.63;;;11.30;99.90;;;;;;5072576;28;20400;-73
2021/12/24 11:10:12;;;;;;;46.00;9.18;;;11.30;99.90;;;;;;5074486;28;20461;-73
2021/12/24 11:12:43;;;;;;;42.80;8.45;;;11.30;99.90;;;;;;5069693;28;20415;-73
2021/12/24 11:15:20;;;;;;;41.07;8.90;;;11.30;99.90;;;;;;5075142;28;20447;-73
2021/12/24 11:17:47;;;;;;;40.70;8.70;;;11.30;99.90;;;;;;5067631;28;20423;-73
2021/12/24 11:20:12;;;;;;;45.70;8.65;;;11.30;99.90;;;;;;5068386;28;20960;-73
2021/12/24 11:22:53;;;;;;;48.43;8.97;;;11.30;99.90;;;;;;5066012;28;20477;-73
2021/12/24 11:25:20;;;;;;;38.57;8.87;;;11.30;99.90;;;;;;5067109;28;20506;-72
2021/12/24 11:27:46;;;;;;;46.65;9.98;;;11.30;99.90;;;;;;5064281;28;20450;-71
2021/12/24 11:30:12;;;;;;;44.17;9.07;;;11.30;99.90;;;;;;5068633;28;20411;-73
2021/12/24 11:32:39;;;;;;;39.10;9.18;;;11.30;99.90;;;;;;5067797;28;20434;-74
2021/12/24 11:35:05;;;;;;;39.30;9.70;;;11.40;99.90;;;;;;5069269;28;20490;-73
2021/12/24 11:37:31;;;;;;;44.87;9.53;;;11.40;99.90;;;;;;5065822;28;20411;-73
2021/12/24 11:39:58;;;;;;;42.70;9.40;;;11.40;99.90;;;;;;5066346;28;20888;-73
2021/12/24 11:42:28;;;;;;;41.08;10.15;;;11.40;99.90;;;;;;5066721;28;20510;-74
2021/12/24 11:44:54;;;;;;;36.20;8.82;;;11.40;99.90;;;;;;5064012;28;20432;-73
2021/12/24 11:47:20;;;;;;;34.20;9.57;;;11.40;99.90;;;;;;5073108;28;20462;-73
2021/12/24 11:49:46;;;;;;;33.33;9.50;;;11.40;99.90;;;;;;5078479;28;20965;-73
2021/12/24 11:52:12;;;;;;;27.55;8.70;;;11.40;99.90;;;;;;5066582;28;20408;-73
2021/12/24 11:54:38;;;;;;;32.25;9.52;;;11.40;99.90;;;;;;5077362;28;20406;-72
2021/12/24 11:57:16;;;;;;;38.57;10.40;;;11.30;99.90;;;;;;5072058;28;20415;-72
2021/12/24 11:59:42;;;;;;;37.70;10.73;;;11.30;99.90;;;;;;5072939;28;20403;-75
2021/12/24 12:02:08;;;;;;;41.85;10.85;;;11.30;99.90;;;;;;5066292;28;20462;-73
2021/12/24 12:04:34;;;;;;;36.00;10.53;;;11.30;99.90;;;;;;5077756;28;20409;-72
2021/12/24 12:07:17;;;;;;;40.55;11.30;;;11.30;99.90;;;;;;5068251;28;20408;-72
2021/12/24 12:09:45;;;;;;;34.75;10.95;;;11.40;99.90;;;;;;5067332;28;20411;-74
2021/12/24 12:12:14;;;;;;;40.00;11.05;;;11.40;99.90;;;;;;5076110;28;20469;-72
2021/12/24 12:14:41;;;;;;;41.45;10.98;;;11.40;99.90;;;;;;5082858;28;20422;-72
2021/12/24 12:17:07;;;;;;;40.97;11.50;;;11.40;99.90;;;;;;5067859;28;20414;-72
2021/12/24 12:22:29;;;;;;;37.28;11.05;;;11.40;99.90;;;;;;5070393;28;20547;-71
2021/12/24 12:24:58;;;;;;;42.10;10.88;;;11.40;99.90;;;;;;5070990;28;20936;-72
2021/12/24 12:27:30;;;;;;;41.45;11.50;;;11.50;99.90;;;;;;5059509;28;21221;-73
2021/12/24 12:29:55;;;;;;;34.28;10.77;;;11.50;99.90;;;;;;5065910;28;20407;-73
2021/12/24 12:32:21;;;;;;;41.80;11.30;;;11.50;99.90;;;;;;5075814;28;20878;-73
2021/12/24 12:34:49;;;;;;;38.00;11.27;;;11.50;99.90;;;;;;5067880;28;20473;-73
2021/12/24 12:37:45;;;;;;;35.30;10.68;;;11.50;99.90;;;;;;5065639;28;20399;-71
2021/12/24 12:40:16;;;;;;;41.45;12.20;;;11.40;99.90;;;;;;5075249;28;20433;-72
2021/12/24 12:42:48;;;;;;;41.53;12.02;;;11.40;99.90;;;;;;5068036;28;20421;-73
2021/12/24 12:45:15;;;;;;;41.97;11.43;;;11.40;99.90;;;;;;5068742;28;20453;-73
2021/12/24 12:47:57;;;;;;;36.90;11.07;;;11.40;99.90;;;;;;5064652;28;20459;-70
2021/12/24 12:50:24;;;;;;;28.90;8.85;;;11.40;99.90;;;;;;5076591;28;20402;-73
2021/12/24 12:52:53;;;;;;;18.80;5.47;;;11.50;99.90;;;;;;5051268;28;20420;-72
2021/12/24 12:55:33;;;;;;;11.13;3.40;;;11.50;99.90;;;;;;5048735;28;20419;-72
2021/12/24 12:58:23;;;;;;;13.02;3.30;;;11.50;99.90;;;;;;5049493;28;20792;-74
2021/12/24 13:01:03;;;;;;;10.33;2.57;;;11.50;99.90;;;;;;5064347;28;20423;-72
2021/12/24 13:03:29;;;;;;;10.52;2.45;;;11.50;99.90;;;;;;5047246;28;20772;-73
2021/12/24 13:05:59;;;;;;;7.57;2.33;;;11.50;99.90;;;;;;5091037;28;20401;-72
2021/12/24 13:08:27;;;;;;;11.00;2.53;;;11.50;99.90;;;;;;5072861;28;20465;-72
2021/12/24 13:10:59;;;;;;;6.75;1.80;;;11.50;99.90;;;;;;5063418;28;20886;-72
2021/12/24 13:13:27;;;;;;;9.02;2.55;;;11.50;99.90;;;;;;5073949;28;20419;-73
2021/12/24 13:15:53;;;;;;;6.13;2.22;;;11.60;99.90;;;;;;5049145;28;20441;-74
2021/12/24 13:18:27;;;;;;;6.18;2.10;;;11.60;99.90;;;;;;5074422;28;20502;-73
2021/12/24 13:23:34;;;;;;;9.80;2.80;;;11.60;99.90;;;;;;5070969;28;20400;-75
2021/12/24 13:26:18;;;;;;;8.63;3.07;;;11.70;99.90;;;;;;5071935;28;20449;-75
2021/12/24 13:29:02;;;;;;;12.00;4.05;;;11.70;99.90;;;;;;5067077;28;20449;-74
2021/12/24 13:31:29;;;;;;;14.27;4.22;;;11.70;99.90;;;;;;5071580;28;20502;-74
2021/12/24 13:33:55;;;;;;;12.18;4.70;;;11.70;99.90;;;;;;5048271;28;20764;-74
2021/12/24 13:36:27;;;;;;;14.70;4.70;;;11.70;99.90;;;;;;5051212;28;20498;-72
2021/12/24 13:38:53;;;;;;;14.05;5.38;;;11.70;99.90;;;;;;5067204;28;20415;-71
2021/12/24 13:41:23;;;;;;;17.20;6.30;;;11.70;99.90;;;;;;5070237;28;20527;-72
2021/12/24 13:43:49;;;;;;;29.50;16.00;;;11.70;99.90;;;;;;5064419;28;20928;-72
2021/12/24 13:46:15;;;;;;;17.40;7.27;;;11.80;99.90;;;;;;5056347;28;20464;-72
2021/12/24 13:49:20;;;;;;;17.33;6.40;;;11.80;99.90;;;;;;5048208;28;20435;-71
2021/12/24 13:54:34;;;;;;;14.15;6.20;;;11.80;99.90;;;;;;5066396;28;20406;-71
2021/12/24 13:57:03;;;;;;;15.48;5.68;;;11.80;99.90;;;;;;5043589;28;20915;-73
2021/12/24 13:59:31;;;;;;;16.27;6.22;;;11.80;99.90;;;;;;5045941;28;20502;-72
2021/12/24 14:01:57;;;;;;;18.27;6.50;;;11.70;99.90;;;;;;5068331;28;20423;-73
2021/12/24 14:04:24;;;;;;;15.90;6.90;;;11.70;99.90;;;;;;5062651;28;20411;-74
2021/12/24 14:06:55;;;;;;;20.52;7.35;;;11.70;99.90;;;;;;5042257;28;20415;-73
2021/12/24 14:09:30;;;;;;;20.67;7.80;;;11.80;99.90;;;;;;5067547;28;20568;-73
2021/12/24 14:11:56;;;;;;;22.92;7.68;;;11.80;99.90;;;;;;5064526;28;20417;-73
2021/12/24 14:14:29;;;;;;;20.27;7.00;;;11.80;99.90;;;;;;5068438;28;20544;-73
2021/12/24 14:20:26;;;;;;;20.83;6.90;;;11.70;99.90;;;;;;5065962;28;20409;-74
2021/12/24 14:22:34;;;;;;;23.52;6.70;;;11.70;99.90;;;;;;5054133;28;20415;-75
2021/12/24 14:25:10;;;;;;;18.67;6.60;;;11.70;99.90;;;;;;5067059;28;20418;-74
2021/12/24 14:27:38;;;;;;;19.50;6.88;;;11.60;99.90;;;;;;5046898;28;20769;-73
2021/12/24 14:30:05;;;;;;;19.95;6.60;;;11.60;99.90;;;;;;5029527;28;20496;-72
2021/12/24 14:32:40;;;;;;;19.13;7.05;;;11.70;99.90;;;;;;5079407;28;20421;-72
2021/12/24 14:35:15;;;;;;;22.40;6.72;;;11.60;99.90;;;;;;5050546;28;20806;-72
2021/12/24 14:37:43;;;;;;;20.65;7.18;;;11.60;99.90;;;;;;5047679;28;20853;-74
2021/12/24 14:40:11;;;;;;;20.10;6.40;;;11.60;99.90;;;;;;5047886;28;20419;-73